createdAt,value
2019-06-01T00:01:29.765Z,17.62
2019-06-01T00:03:58.193Z,17.57
2019-06-01T00:06:26.619Z,17.70
2019-06-01T00:08:55.043Z,17.70
2019-06-01T00:11:23.448Z,17.62
2019-06-01T00:13:51.863Z,17.61
2019-06-01T00:16:20.434Z,17.64
2019-06-01T00:18:50.262Z,17.65
2019-06-01T00:21:18.848Z,17.61
2019-06-01T00:23:48.574Z,17.61
2019-06-01T00:26:17.138Z,17.51
2019-06-01T00:28:45.821Z,17.52
2019-06-01T00:31:14.229Z,17.67
2019-06-01T00:33:43.312Z,17.65
2019-06-01T00:36:11.734Z,17.56
2019-06-01T00:38:41.496Z,17.53
2019-06-01T00:41:10.040Z,17.52
2019-06-01T00:43:38.457Z,17.53
2019-06-01T00:46:06.866Z,17.50
2019-06-01T00:48:35.301Z,17.49
2019-06-01T00:51:03.709Z,17.59
2019-06-01T00:53:32.195Z,17.46
2019-06-01T00:56:00.602Z,17.44
2019-06-01T00:58:29.021Z,17.34
2019-06-01T01:00:57.428Z,17.24
2019-06-01T01:03:25.853Z,17.30
2019-06-01T01:05:54.855Z,17.12
2019-06-01T01:08:23.363Z,17.20
2019-06-01T01:10:53.008Z,17.21
2019-06-01T01:13:23.124Z,17.16
2019-06-01T01:15:51.518Z,17.18
2019-06-01T01:18:19.934Z,17.16
2019-06-01T01:20:48.359Z,17.15
2019-06-01T01:23:16.777Z,17.13
2019-06-01T01:25:46.287Z,17.09
2019-06-01T01:28:14.784Z,17.10
2019-06-01T01:31:01.714Z,16.87
2019-06-01T01:33:14.407Z,16.89
2019-06-01T01:35:42.815Z,16.81
2019-06-01T01:38:11.228Z,16.66
2019-06-01T01:40:39.653Z,16.44
2019-06-01T01:43:08.070Z,16.41
2019-06-01T01:45:36.488Z,16.28
2019-06-01T01:48:04.973Z,16.31
2019-06-01T01:50:33.394Z,16.24
2019-06-01T01:53:03.178Z,16.30
2019-06-01T01:55:31.801Z,16.42
2019-06-01T01:58:01.559Z,16.37
2019-06-01T02:00:44.754Z,16.38
2019-06-01T02:03:13.161Z,16.34
2019-06-01T02:05:41.746Z,16.29
2019-06-01T02:08:10.326Z,16.28
2019-06-01T02:10:38.981Z,16.34
2019-06-01T02:13:07.661Z,16.31
2019-06-01T02:15:36.924Z,16.33
2019-06-01T02:18:06.378Z,16.44
2019-06-01T02:20:35.939Z,16.49
2019-06-01T02:23:05.384Z,16.54
2019-06-01T02:25:34.037Z,16.58
2019-06-01T02:28:03.399Z,16.68
2019-06-01T02:30:31.871Z,16.76
2019-06-01T02:33:00.691Z,16.83
2019-06-01T02:35:30.565Z,16.81
2019-06-01T02:38:00.376Z,16.84
2019-06-01T02:40:29.103Z,16.87
2019-06-01T02:42:59.198Z,16.86
2019-06-01T02:45:27.927Z,16.79
2019-06-01T02:47:57.460Z,16.88
2019-06-01T02:50:26.207Z,16.96
2019-06-01T02:52:55.527Z,16.94
2019-06-01T02:55:24.248Z,16.96
2019-06-01T02:57:52.989Z,17.02
2019-06-01T03:00:41.156Z,17.10
2019-06-01T03:03:09.561Z,17.07
2019-06-01T03:05:38.914Z,17.08
2019-06-01T03:08:08.460Z,17.02
2019-06-01T03:10:38.217Z,16.99
2019-06-01T03:13:09.172Z,16.92
2019-06-01T03:15:40.645Z,16.98
2019-06-01T03:18:11.822Z,16.96
2019-06-01T03:20:42.891Z,16.89
2019-06-01T03:23:13.233Z,16.91
2019-06-01T03:25:42.606Z,16.50
2019-06-01T03:28:14.068Z,16.68
2019-06-01T03:30:45.618Z,16.74
2019-06-01T03:33:14.153Z,16.65
2019-06-01T03:35:43.064Z,16.72
2019-06-01T03:38:11.474Z,16.73
2019-06-01T03:40:39.891Z,16.78
2019-06-01T03:43:09.353Z,16.84
2019-06-01T03:45:37.807Z,16.90
2019-06-01T03:48:06.742Z,16.92
2019-06-01T03:50:35.210Z,16.98
2019-06-01T03:53:03.883Z,17.04
2019-06-01T03:55:32.310Z,17.06
2019-06-01T03:58:01.087Z,17.05
2019-06-01T04:00:29.458Z,17.01
2019-06-01T04:02:57.867Z,16.95
2019-06-01T04:05:26.291Z,17.15
2019-06-01T04:07:54.701Z,17.12
2019-06-01T04:10:23.107Z,17.15
2019-06-01T04:12:51.508Z,16.99
2019-06-01T04:15:19.922Z,17.04
2019-06-01T04:17:48.326Z,16.96
2019-06-01T04:20:16.823Z,17.14
2019-06-01T04:22:45.270Z,17.21
2019-06-01T04:25:13.712Z,17.14
2019-06-01T04:27:42.148Z,17.06
2019-06-01T04:30:11.504Z,17.01
2019-06-01T04:32:49.306Z,17.05
2019-06-01T04:35:11.129Z,17.25
2019-06-01T04:37:39.586Z,17.22
2019-06-01T04:40:09.547Z,17.38
2019-06-01T04:42:37.961Z,17.72
2019-06-01T04:45:10.793Z,17.91
2019-06-01T04:47:39.238Z,18.08
2019-06-01T04:50:08.738Z,18.11
2019-06-01T04:52:37.225Z,18.35
2019-06-01T04:55:07.788Z,18.18
2019-06-01T04:57:37.339Z,18.28
2019-06-01T05:00:19.858Z,18.41
2019-06-01T05:02:37.693Z,18.39
2019-06-01T05:05:07.165Z,18.39
2019-06-01T05:07:35.640Z,18.53
2019-06-01T05:10:07.497Z,18.60
2019-06-01T05:12:36.034Z,18.65
2019-06-01T05:15:07.623Z,18.64
2019-06-01T05:17:36.014Z,18.53
2019-06-01T05:20:06.356Z,18.65
2019-06-01T05:22:34.760Z,18.53
2019-06-01T05:25:03.814Z,18.66
2019-06-01T05:27:32.226Z,18.72
2019-06-01T05:30:00.631Z,18.90
2019-06-01T05:32:29.060Z,19.20
2019-06-01T05:34:57.467Z,19.65
2019-06-01T05:37:25.872Z,19.91
2019-06-01T05:39:54.280Z,19.92
2019-06-01T05:42:22.708Z,19.85
2019-06-01T05:44:51.106Z,19.86
2019-06-01T05:47:19.514Z,19.76
2019-06-01T05:49:47.918Z,19.79
2019-06-01T05:52:16.729Z,19.64
2019-06-01T05:54:45.116Z,19.63
2019-06-01T05:57:14.663Z,19.88
2019-06-01T05:59:43.131Z,19.57
2019-06-01T06:02:11.547Z,19.62
2019-06-01T06:04:39.955Z,19.67
2019-06-01T06:07:08.490Z,19.46
2019-06-01T06:09:36.925Z,19.40
2019-06-01T06:12:05.323Z,19.59
2019-06-01T06:14:33.723Z,19.70
2019-06-01T06:17:02.156Z,19.82
2019-06-01T06:19:30.564Z,19.85
2019-06-01T06:21:59.060Z,19.90
2019-06-01T06:24:27.521Z,20.00
2019-06-01T06:26:55.943Z,20.32
2019-06-01T06:29:24.359Z,20.12
2019-06-01T06:31:52.785Z,20.35
2019-06-01T06:34:21.579Z,20.50
2019-06-01T06:36:50.148Z,20.37
2019-06-01T06:39:18.491Z,20.53
2019-06-01T06:41:46.902Z,20.74
2019-06-01T06:44:16.331Z,20.84
2019-06-01T06:46:44.803Z,21.20
2019-06-01T06:49:13.215Z,21.36
2019-06-01T06:51:41.630Z,21.64
2019-06-01T06:54:10.045Z,21.64
2019-06-01T06:56:38.455Z,21.92
2019-06-01T06:59:06.880Z,21.95
2019-06-01T07:01:35.295Z,22.71
2019-06-01T07:04:12.756Z,22.71
2019-06-01T07:06:33.841Z,24.07
2019-06-01T07:09:03.153Z,25.82
2019-06-01T07:11:31.619Z,27.47
2019-06-01T07:13:59.995Z,28.48
2019-06-01T07:16:28.466Z,29.44
2019-06-01T07:18:56.884Z,30.93
2019-06-01T07:21:25.878Z,30.95
2019-06-01T07:23:54.365Z,31.87
2019-06-01T07:26:24.000Z,31.88
2019-06-01T07:28:52.497Z,32.67
2019-06-01T07:31:22.036Z,31.86
2019-06-01T07:33:50.478Z,32.10
2019-06-01T07:36:20.164Z,32.31
2019-06-01T07:38:48.694Z,31.71
2019-06-01T07:41:17.088Z,32.05
2019-06-01T07:43:45.506Z,31.71
2019-06-01T07:46:13.909Z,30.73
2019-06-01T07:48:42.326Z,31.57
2019-06-01T07:51:10.731Z,31.00
2019-06-01T07:53:39.150Z,31.52
2019-06-01T07:56:07.552Z,31.50
2019-06-01T07:58:35.967Z,31.72
2019-06-01T08:01:04.537Z,31.47
2019-06-01T08:03:35.027Z,31.10
2019-06-01T08:06:03.090Z,30.79
2019-06-01T08:08:31.695Z,29.93
2019-06-01T08:11:00.170Z,30.11
2019-06-01T08:13:32.213Z,28.99
2019-06-01T08:15:58.721Z,27.80
2019-06-01T08:18:28.180Z,26.84
2019-06-01T08:20:56.673Z,27.06
2019-06-01T08:23:26.162Z,27.74
2019-06-01T08:25:54.587Z,28.07
2019-06-01T08:28:24.347Z,28.19
2019-06-01T08:30:52.786Z,28.50
2019-06-01T08:33:21.273Z,27.95
2019-06-01T08:35:49.685Z,28.77
2019-06-01T08:38:18.090Z,28.94
2019-06-01T08:40:46.559Z,28.93
2019-06-01T08:43:14.970Z,29.02
2019-06-01T08:45:43.386Z,28.72
2019-06-01T08:48:11.791Z,28.38
2019-06-01T08:50:40.202Z,28.44
2019-06-01T08:53:08.612Z,28.63
2019-06-01T08:55:37.016Z,28.58
2019-06-01T08:58:05.506Z,28.21
2019-06-01T09:00:34.733Z,28.72
2019-06-01T09:03:03.207Z,29.09
2019-06-01T09:05:31.639Z,29.01
2019-06-01T09:08:00.019Z,28.61
2019-06-01T09:10:29.231Z,28.64
2019-06-01T09:12:57.625Z,28.66
2019-06-01T09:15:27.469Z,28.10
2019-06-01T09:17:55.988Z,27.98
2019-06-01T09:20:25.493Z,27.87
2019-06-01T09:22:54.088Z,27.71
2019-06-01T09:25:22.575Z,27.14
2019-06-01T09:27:50.978Z,27.68
2019-06-01T09:30:19.827Z,27.94
2019-06-01T09:32:48.239Z,28.09
2019-06-01T09:35:16.646Z,27.95
2019-06-01T09:37:45.858Z,27.78
2019-06-01T09:40:14.780Z,27.36
2019-06-01T09:42:43.250Z,27.59
2019-06-01T09:45:13.461Z,27.58
2019-06-01T09:47:41.866Z,28.02
2019-06-01T09:50:10.339Z,27.98
2019-06-01T09:52:38.744Z,28.02
2019-06-01T09:55:08.424Z,28.47
2019-06-01T09:57:38.235Z,28.34
2019-06-01T10:00:10.153Z,27.92
2019-06-01T10:02:38.546Z,27.78
2019-06-01T10:05:07.593Z,27.96
2019-06-01T10:07:37.027Z,27.90
2019-06-01T10:10:08.488Z,28.21
2019-06-01T10:12:38.098Z,28.33
2019-06-01T10:15:07.505Z,28.24
2019-06-01T10:17:37.034Z,28.24
2019-06-01T10:20:07.069Z,28.38
2019-06-01T10:22:35.474Z,28.03
2019-06-01T10:25:06.166Z,27.92
2019-06-01T10:27:34.576Z,27.90
2019-06-01T10:30:03.531Z,27.97
2019-06-01T10:32:32.477Z,28.39
2019-06-01T10:35:02.176Z,28.61
2019-06-01T10:37:31.361Z,28.09
2019-06-01T10:39:59.762Z,27.95
2019-06-01T10:42:28.158Z,28.38
2019-06-01T10:44:56.577Z,28.02
2019-06-01T10:47:24.975Z,27.91
2019-06-01T10:49:53.381Z,28.32
2019-06-01T10:52:21.781Z,28.50
2019-06-01T10:54:50.188Z,28.32
2019-06-01T10:57:18.579Z,28.39
2019-06-01T10:59:46.991Z,28.84
2019-06-01T11:02:15.389Z,28.74
2019-06-01T11:04:43.819Z,28.98
2019-06-01T11:07:12.214Z,28.59
2019-06-01T11:09:41.203Z,29.10
2019-06-01T11:12:09.601Z,29.12
2019-06-01T11:14:39.062Z,29.33
2019-06-01T11:17:07.492Z,28.84
2019-06-01T11:19:37.012Z,28.76
2019-06-01T11:22:05.575Z,28.93
2019-06-01T11:24:35.250Z,28.67
2019-06-01T11:27:03.774Z,28.95
2019-06-01T11:29:33.784Z,29.12
2019-06-01T11:32:02.310Z,28.55
2019-06-01T11:34:30.718Z,28.72
2019-06-01T11:37:05.319Z,28.98
2019-06-01T11:39:29.239Z,28.93
2019-06-01T11:41:57.648Z,29.14
2019-06-01T11:44:26.048Z,29.18
2019-06-01T11:46:54.485Z,28.87
2019-06-01T11:49:22.907Z,29.25
2019-06-01T11:51:51.720Z,29.23
2019-06-01T11:54:20.199Z,29.40
2019-06-01T11:56:48.639Z,29.21
2019-06-01T11:59:17.032Z,29.41
2019-06-01T12:01:46.021Z,29.46
2019-06-01T12:04:14.692Z,28.97
2019-06-01T12:06:44.070Z,28.78
2019-06-01T12:09:12.680Z,29.08
2019-06-01T12:11:42.155Z,29.11
2019-06-01T12:14:10.676Z,29.40
2019-06-01T12:16:40.029Z,29.68
2019-06-01T12:19:08.667Z,29.58
2019-06-01T12:21:37.148Z,29.23
2019-06-01T12:24:05.573Z,29.25
2019-06-01T12:26:33.978Z,29.44
2019-06-01T12:29:02.373Z,29.50
2019-06-01T12:31:30.808Z,29.54
2019-06-01T12:33:59.195Z,29.78
2019-06-01T12:36:27.601Z,29.97
2019-06-01T12:38:56.245Z,29.99
2019-06-01T12:41:24.744Z,30.34
2019-06-01T12:44:09.965Z,29.99
2019-06-01T12:46:39.807Z,29.85
2019-06-01T12:49:08.500Z,30.00
2019-06-01T12:51:36.921Z,30.29
2019-06-01T12:54:06.855Z,30.47
2019-06-01T12:56:35.363Z,30.52
2019-06-01T12:59:04.223Z,30.45
2019-06-01T13:01:32.643Z,30.25
2019-06-01T13:04:01.050Z,30.25
2019-06-01T13:06:29.596Z,30.60
2019-06-01T13:08:57.983Z,30.09
2019-06-01T13:11:26.396Z,30.18
2019-06-01T13:13:54.794Z,30.23
2019-06-01T13:16:23.202Z,30.35
2019-06-01T13:18:51.782Z,29.64
2019-06-01T13:21:20.184Z,29.98
2019-06-01T13:23:49.652Z,30.05
2019-06-01T13:26:18.135Z,30.25
2019-06-01T13:28:46.553Z,30.29
2019-06-01T13:31:14.950Z,30.56
2019-06-01T13:33:44.451Z,30.76
2019-06-01T13:36:12.904Z,30.80
2019-06-01T13:38:42.463Z,30.96
2019-06-01T13:41:10.887Z,31.08
2019-06-01T13:43:39.316Z,31.33
2019-06-01T13:46:07.698Z,31.18
2019-06-01T13:48:36.104Z,30.89
2019-06-01T13:51:04.512Z,30.81
2019-06-01T13:53:32.924Z,30.02
2019-06-01T13:56:01.319Z,29.44
2019-06-01T13:58:29.719Z,30.14
2019-06-01T14:00:58.134Z,30.47
2019-06-01T14:03:26.545Z,30.53
2019-06-01T14:05:55.178Z,31.09
2019-06-01T14:08:28.881Z,31.39
2019-06-01T14:10:53.669Z,31.23
2019-06-01T14:13:22.156Z,31.04
2019-06-01T14:15:51.584Z,30.96
2019-06-01T14:18:20.050Z,30.17
2019-06-01T14:20:49.649Z,30.68
2019-06-01T14:23:18.051Z,31.00
2019-06-01T14:25:46.461Z,31.28
2019-06-01T14:28:14.885Z,31.60
2019-06-01T14:30:43.376Z,31.25
2019-06-01T14:33:11.792Z,31.61
2019-06-01T14:35:40.210Z,31.80
2019-06-01T14:38:08.642Z,32.09
2019-06-01T14:40:37.042Z,31.91
2019-06-01T14:43:05.446Z,31.63
2019-06-01T14:45:33.868Z,31.73
2019-06-01T14:48:02.278Z,31.68
2019-06-01T14:50:30.679Z,31.62
2019-06-01T14:52:59.086Z,31.31
2019-06-01T14:55:27.480Z,31.77
2019-06-01T14:57:56.044Z,31.77
2019-06-01T15:00:24.438Z,32.09
2019-06-01T15:02:54.368Z,31.80
2019-06-01T15:05:22.866Z,31.51
2019-06-01T15:07:52.370Z,31.59
2019-06-01T15:10:20.841Z,31.16
2019-06-01T15:12:54.596Z,31.16
2019-06-01T15:15:19.533Z,31.11
2019-06-01T15:17:49.202Z,31.24
2019-06-01T15:20:18.069Z,31.42
2019-06-01T15:22:46.466Z,31.63
2019-06-01T15:25:15.913Z,31.58
2019-06-01T15:27:44.317Z,30.91
2019-06-01T15:30:14.864Z,30.71
2019-06-01T15:32:43.305Z,30.38
2019-06-01T15:35:13.351Z,30.58
2019-06-01T15:37:41.762Z,30.64
2019-06-01T15:40:11.102Z,31.03
2019-06-01T15:42:39.984Z,31.24
2019-06-01T15:45:09.426Z,31.48
2019-06-01T15:47:37.825Z,30.86
2019-06-01T15:50:07.680Z,30.54
2019-06-01T15:52:36.067Z,30.40
2019-06-01T15:55:06.233Z,30.43
2019-06-01T15:57:34.611Z,30.57
2019-06-01T16:00:04.601Z,30.79
2019-06-01T16:02:32.998Z,31.21
2019-06-01T16:05:01.547Z,31.42
2019-06-01T16:07:29.892Z,30.69
2019-06-01T16:09:59.395Z,30.09
2019-06-01T16:12:27.781Z,30.05
2019-06-01T16:14:57.511Z,30.04
2019-06-01T16:17:25.956Z,30.11
2019-06-01T16:19:55.782Z,30.30
2019-06-01T16:22:24.246Z,30.16
2019-06-01T16:24:53.967Z,30.09
2019-06-01T16:27:22.443Z,30.01
2019-06-01T16:29:50.858Z,30.39
2019-06-01T16:32:19.265Z,30.40
2019-06-01T16:34:47.671Z,30.08
2019-06-01T16:37:16.069Z,29.95
2019-06-01T16:39:58.386Z,29.87
2019-06-01T16:42:14.615Z,29.45
2019-06-01T16:44:43.028Z,29.46
2019-06-01T16:47:11.429Z,29.93
2019-06-01T16:49:39.857Z,30.37
2019-06-01T16:52:08.257Z,30.51
2019-06-01T16:54:36.677Z,30.54
2019-06-01T16:57:05.402Z,30.41
2019-06-01T16:59:33.813Z,30.10
2019-06-01T17:02:03.395Z,30.17
2019-06-01T17:04:31.902Z,30.39
2019-06-01T17:07:00.700Z,30.37
2019-06-01T17:09:29.099Z,30.38
2019-06-01T17:11:58.665Z,29.98
2019-06-01T17:14:27.198Z,29.79
2019-06-01T17:16:56.968Z,29.17
2019-06-01T17:19:25.510Z,29.08
2019-06-01T17:21:53.906Z,28.77
2019-06-01T17:24:22.434Z,28.98
2019-06-01T17:26:50.892Z,29.15
2019-06-01T17:29:19.307Z,29.31
2019-06-01T17:31:54.395Z,29.03
2019-06-01T17:34:17.964Z,29.19
2019-06-01T17:36:46.379Z,29.24
2019-06-01T17:39:14.828Z,29.26
2019-06-01T17:41:43.320Z,29.24
2019-06-01T17:44:12.690Z,29.13
2019-06-01T17:46:52.847Z,29.06
2019-06-01T17:49:12.419Z,28.65
2019-06-01T17:51:40.916Z,28.56
2019-06-01T17:54:09.858Z,28.74
2019-06-01T17:56:38.297Z,28.95
2019-06-01T17:59:07.555Z,28.52
2019-06-01T18:01:35.979Z,28.50
2019-06-01T18:04:05.818Z,28.77
2019-06-01T18:06:34.235Z,28.94
2019-06-01T18:09:03.789Z,28.64
2019-06-01T18:11:32.198Z,28.31
2019-06-01T18:14:02.022Z,27.86
2019-06-01T18:16:30.734Z,27.32
2019-06-01T18:18:59.203Z,26.88
2019-06-01T18:21:27.609Z,26.62
2019-06-01T18:23:56.021Z,26.37
2019-06-01T18:26:24.439Z,25.79
2019-06-01T18:28:52.892Z,25.67
2019-06-01T18:31:21.364Z,25.45
2019-06-01T18:33:53.301Z,25.46
2019-06-01T18:36:19.899Z,25.34
2019-06-01T18:38:48.302Z,25.14
2019-06-01T18:41:20.183Z,25.11
2019-06-01T18:43:48.665Z,25.06
2019-06-01T18:46:17.275Z,25.11
2019-06-01T18:48:45.728Z,24.87
2019-06-01T18:51:14.507Z,24.84
2019-06-01T18:53:42.956Z,24.88
2019-06-01T18:56:12.303Z,24.70
2019-06-01T18:58:41.531Z,24.35
2019-06-01T19:01:10.750Z,24.23
2019-06-01T19:03:39.138Z,23.80
2019-06-01T19:06:07.539Z,23.42
2019-06-01T19:08:35.936Z,23.51
2019-06-01T19:11:05.709Z,23.20
2019-06-01T19:13:34.113Z,23.18
2019-06-01T19:16:02.524Z,23.03
2019-06-01T19:18:30.920Z,22.89
2019-06-01T19:20:59.336Z,22.91
2019-06-01T19:23:27.763Z,22.85
2019-06-01T19:25:56.173Z,22.87
2019-06-01T19:28:24.568Z,22.90
2019-06-01T19:30:52.998Z,22.93
2019-06-01T19:33:21.409Z,22.80
2019-06-01T19:35:50.005Z,22.55
2019-06-01T19:38:19.518Z,22.40
2019-06-01T19:40:47.921Z,21.95
2019-06-01T19:43:17.555Z,21.88
2019-06-01T19:45:46.011Z,21.76
2019-06-01T19:48:14.764Z,21.45
2019-06-01T19:50:43.526Z,21.28
2019-06-01T19:53:12.705Z,21.24
2019-06-01T19:55:41.291Z,21.02
2019-06-01T19:58:10.137Z,20.96
2019-06-01T20:00:38.595Z,20.78
2019-06-01T20:03:07.077Z,20.68
2019-06-01T20:05:35.525Z,20.47
2019-06-01T20:08:04.219Z,20.47
2019-06-01T20:10:32.637Z,20.47
2019-06-01T20:13:01.043Z,20.57
2019-06-01T20:15:29.972Z,20.53
2019-06-01T20:17:58.394Z,20.51
2019-06-01T20:20:26.795Z,20.34
2019-06-01T20:22:55.326Z,20.36
2019-06-01T20:25:23.739Z,20.39
2019-06-01T20:27:52.191Z,20.25
2019-06-01T20:30:22.182Z,20.09
2019-06-01T20:32:50.687Z,20.08
2019-06-01T20:35:20.110Z,20.24
2019-06-01T20:37:48.585Z,20.00
2019-06-01T20:40:18.449Z,19.90
2019-06-01T20:42:46.853Z,19.86
2019-06-01T20:45:16.601Z,19.91
2019-06-01T20:47:45.245Z,20.14
2019-06-01T20:50:14.823Z,19.94
2019-06-01T20:52:43.282Z,19.81
2019-06-01T20:55:12.874Z,19.67
2019-06-01T20:57:41.304Z,19.71
2019-06-01T21:00:10.365Z,19.61
2019-06-01T21:02:38.842Z,19.66
2019-06-01T21:05:09.703Z,19.56
2019-06-01T21:07:38.100Z,19.42
2019-06-01T21:10:07.851Z,19.58
2019-06-01T21:12:44.669Z,19.32
2019-06-01T21:15:07.728Z,19.17
2019-06-01T21:17:36.290Z,19.15
2019-06-01T21:20:09.544Z,19.33
2019-06-01T21:22:38.289Z,19.17
2019-06-01T21:25:07.655Z,19.19
2019-06-01T21:27:36.062Z,19.09
2019-06-01T21:30:06.442Z,19.18
2019-06-01T21:32:34.855Z,19.07
2019-06-01T21:35:03.255Z,18.84
2019-06-01T21:37:31.671Z,18.99
2019-06-01T21:40:00.074Z,18.97
2019-06-01T21:42:28.468Z,18.94
2019-06-01T21:44:56.879Z,19.07
2019-06-01T21:47:25.864Z,18.99
2019-06-01T21:49:54.388Z,19.17
2019-06-01T21:52:24.140Z,18.98
2019-06-01T21:54:52.694Z,18.83
2019-06-01T21:57:22.218Z,18.71
2019-06-01T21:59:50.675Z,18.84
2019-06-01T22:02:19.088Z,18.76
2019-06-01T22:04:47.498Z,18.76
2019-06-01T22:07:17.234Z,18.86
2019-06-01T22:09:45.801Z,18.71
2019-06-01T22:12:14.201Z,18.75
2019-06-01T22:14:42.608Z,18.69
2019-06-01T22:17:11.012Z,18.81
2019-06-01T22:19:39.428Z,18.81
2019-06-01T22:22:07.825Z,18.74
2019-06-01T22:24:36.233Z,18.64
2019-06-01T22:27:04.716Z,18.53
2019-06-01T22:29:33.118Z,18.51
2019-06-01T22:32:01.523Z,18.69
2019-06-01T22:34:29.948Z,18.78
2019-06-01T22:36:58.361Z,18.77
2019-06-01T22:39:27.086Z,18.71
2019-06-01T22:41:55.473Z,18.69
2019-06-01T22:44:26.156Z,18.66
2019-06-01T22:46:54.602Z,18.49
2019-06-01T22:49:23.015Z,18.40
2019-06-01T22:51:51.448Z,18.15
2019-06-01T22:54:21.040Z,18.23
2019-06-01T22:56:49.754Z,18.08
2019-06-01T22:59:18.248Z,18.05
2019-06-01T23:01:46.660Z,18.16
2019-06-01T23:04:15.101Z,18.07
2019-06-01T23:06:43.496Z,17.97
2019-06-01T23:09:11.898Z,17.76
2019-06-01T23:11:40.291Z,17.89
2019-06-01T23:14:08.708Z,17.94
2019-06-01T23:16:37.099Z,18.03
2019-06-01T23:19:05.504Z,17.76
2019-06-01T23:21:33.895Z,17.69
2019-06-01T23:24:02.302Z,17.77
2019-06-01T23:26:30.704Z,17.83
2019-06-01T23:28:59.112Z,17.98
2019-06-01T23:31:28.479Z,17.94
2019-06-01T23:33:56.904Z,17.96
2019-06-01T23:36:26.493Z,17.91
2019-06-01T23:38:54.892Z,17.78
2019-06-01T23:41:24.426Z,17.71
2019-06-01T23:44:09.925Z,17.80
2019-06-01T23:46:23.023Z,17.49
2019-06-01T23:48:51.413Z,17.57
2019-06-01T23:51:19.823Z,17.45
2019-06-01T23:53:48.223Z,17.58
2019-06-01T23:56:16.622Z,17.42
2019-06-01T23:58:45.021Z,17.59
